createdAt,value
2023-05-04T07:36:27.767Z,10.85
2023-05-04T07:38:54.483Z,11.12
2023-05-04T07:41:21.012Z,11.33
2023-05-04T07:43:47.587Z,11.52
2023-05-04T07:46:14.185Z,11.68
2023-05-04T07:48:40.771Z,11.82
2023-05-04T07:51:14.102Z,11.95
2023-05-04T07:53:41.038Z,12.07
2023-05-04T07:56:12.427Z,12.18
2023-05-04T07:58:39.482Z,12.36
2023-05-04T08:01:05.953Z,12.53
2023-05-04T08:03:32.480Z,12.72
2023-05-04T08:05:58.982Z,12.88
2023-05-04T08:08:25.585Z,13.02
2023-05-04T08:10:52.616Z,13.16
2023-05-04T08:13:19.266Z,13.27
2023-05-04T08:15:45.774Z,13.44
2023-05-04T08:18:12.201Z,13.59
2023-05-04T08:20:38.725Z,13.72
2023-05-04T08:23:05.245Z,13.90
2023-05-04T08:25:31.790Z,14.03
2023-05-04T08:27:58.266Z,14.16
2023-05-04T08:30:24.960Z,14.29
2023-05-04T08:32:52.983Z,14.40
2023-05-04T08:35:19.596Z,14.46
2023-05-04T08:37:47.624Z,14.51
2023-05-04T08:40:14.953Z,14.67
2023-05-04T08:42:44.239Z,14.79
2023-05-04T08:45:11.028Z,14.91
2023-05-04T08:47:37.729Z,14.97
2023-05-04T08:50:04.554Z,15.05
2023-05-04T08:52:31.171Z,15.13
2023-05-04T08:54:58.432Z,15.29
2023-05-04T08:57:26.070Z,15.42
2023-05-04T08:59:54.509Z,15.56
2023-05-04T09:02:22.614Z,15.63
2023-05-04T09:04:53.440Z,15.77
2023-05-04T09:07:21.281Z,15.87
2023-05-04T09:09:50.868Z,15.93
2023-05-04T09:12:18.162Z,16.10
2023-05-04T09:14:46.319Z,16.25
2023-05-04T09:17:25.172Z,16.42
2023-05-04T09:20:04.026Z,16.56
2023-05-04T09:22:31.098Z,16.63
2023-05-04T09:25:08.155Z,16.71
2023-05-04T09:27:34.688Z,16.87
2023-05-04T09:30:01.167Z,16.96
2023-05-04T09:32:28.486Z,17.03
2023-05-04T09:34:55.046Z,17.17
2023-05-04T09:37:22.390Z,17.31
2023-05-04T09:39:56.298Z,17.46
2023-05-04T09:42:24.053Z,17.57
2023-05-04T09:45:05.548Z,17.68
2023-05-04T09:47:36.862Z,17.85
2023-05-04T09:50:12.607Z,17.96
2023-05-04T09:52:40.440Z,18.04
2023-05-04T09:55:10.995Z,18.22
2023-05-04T09:57:38.001Z,18.33
2023-05-04T10:00:04.997Z,18.52
2023-05-04T10:02:32.250Z,18.58
2023-05-04T10:05:00.684Z,18.70
2023-05-04T10:07:31.804Z,18.82
2023-05-04T10:10:01.239Z,19.00
2023-05-04T10:12:27.771Z,19.09
2023-05-04T10:14:54.317Z,19.12
2023-05-04T10:17:42.239Z,19.15
2023-05-04T10:20:46.573Z,19.29
2023-05-04T10:23:31.759Z,19.47
2023-05-04T10:26:13.459Z,19.55
2023-05-04T10:28:39.822Z,19.72
2023-05-04T10:31:07.452Z,19.83
2023-05-04T10:33:41.581Z,19.94
2023-05-04T10:36:09.335Z,19.89
2023-05-04T10:38:37.487Z,20.06
2023-05-04T10:41:14.377Z,20.13
2023-05-04T10:43:42.414Z,20.23
2023-05-04T10:46:18.687Z,20.42
2023-05-04T10:48:45.281Z,20.64
2023-05-04T10:51:19.839Z,20.76
2023-05-04T10:53:47.486Z,20.83
2023-05-04T10:56:40.245Z,20.92
2023-05-04T10:59:10.350Z,21.03
2023-05-04T11:01:47.364Z,21.18
2023-05-04T11:04:21.517Z,21.34
2023-05-04T11:07:08.375Z,21.29
2023-05-04T11:09:39.721Z,21.32
2023-05-04T11:12:07.395Z,21.46
2023-05-04T11:14:37.843Z,21.64
2023-05-04T11:17:27.481Z,21.80
2023-05-04T11:19:55.190Z,21.86
2023-05-04T11:22:21.932Z,21.86
2023-05-04T11:24:51.356Z,21.86
2023-05-04T11:27:26.096Z,22.02
2023-05-04T11:30:00.159Z,22.10
2023-05-04T11:32:36.373Z,22.24
2023-05-04T11:35:04.899Z,22.46
2023-05-04T11:37:38.884Z,22.49
2023-05-04T11:40:14.156Z,22.74
2023-05-04T11:42:42.735Z,22.77
2023-05-04T11:45:24.835Z,22.90
2023-05-04T11:47:52.370Z,23.13
2023-05-04T11:50:20.900Z,23.45
2023-05-04T11:52:48.509Z,23.40
2023-05-04T11:55:27.889Z,23.58
2023-05-04T11:58:01.453Z,23.97
2023-05-04T12:00:44.370Z,24.23
2023-05-04T12:03:16.096Z,24.46
2023-05-04T12:05:54.314Z,24.77
2023-05-04T12:08:30.417Z,25.05
2023-05-04T12:11:16.763Z,25.27
2023-05-04T12:13:45.752Z,25.79
2023-05-04T12:16:14.125Z,26.13
2023-05-04T12:18:41.546Z,26.37
2023-05-04T12:21:18.955Z,26.81
2023-05-04T12:23:46.922Z,26.99
2023-05-04T12:26:14.713Z,27.47
2023-05-04T12:28:42.714Z,27.82
2023-05-04T12:31:10.152Z,28.29
2023-05-04T12:33:36.768Z,28.35
2023-05-04T12:36:05.885Z,28.57
2023-05-04T12:38:32.611Z,28.84
2023-05-04T12:41:02.205Z,29.17
2023-05-04T12:43:28.997Z,29.46
2023-05-04T12:45:55.571Z,29.60
2023-05-04T12:48:22.104Z,29.66
2023-05-04T12:50:51.715Z,30.04
2023-05-04T12:53:18.506Z,30.08
2023-05-04T12:55:45.212Z,30.32
2023-05-04T12:58:11.704Z,30.38
2023-05-04T13:00:38.848Z,30.34
2023-05-04T13:03:05.882Z,30.17
2023-05-04T13:05:32.513Z,30.31
2023-05-04T13:07:59.373Z,30.51
2023-05-04T13:10:25.865Z,30.49
2023-05-04T13:12:52.544Z,30.11
2023-05-04T13:15:19.195Z,30.09
2023-05-04T13:17:45.703Z,30.28
2023-05-04T13:20:13.102Z,30.26
2023-05-04T13:22:40.585Z,30.36
2023-05-04T13:25:07.713Z,30.41
2023-05-04T13:27:34.675Z,30.27
2023-05-04T13:30:02.985Z,30.40
2023-05-04T13:32:30.884Z,30.21
2023-05-04T13:34:57.838Z,30.32
2023-05-04T13:37:24.384Z,30.01
2023-05-04T13:39:50.926Z,30.00
2023-05-04T13:42:17.966Z,30.04
2023-05-04T13:44:45.488Z,30.12
2023-05-04T13:47:16.077Z,30.27
2023-05-04T13:49:42.680Z,30.15
2023-05-04T13:52:09.685Z,30.14
2023-05-04T13:54:37.230Z,29.77
2023-05-04T13:57:03.821Z,29.92
2023-05-04T13:59:30.396Z,30.18
2023-05-04T14:01:57.002Z,30.17
2023-05-04T14:04:23.862Z,30.19
2023-05-04T14:06:51.630Z,29.95
2023-05-04T14:09:19.272Z,30.06
2023-05-04T14:11:46.692Z,29.98
2023-05-04T14:14:13.295Z,29.93
2023-05-04T14:16:39.965Z,29.51
2023-05-04T14:19:06.454Z,29.33
2023-05-04T14:21:32.950Z,29.24
2023-05-04T14:23:59.414Z,29.18
2023-05-04T14:26:26.040Z,28.86
2023-05-04T14:28:52.500Z,28.55
2023-05-04T14:31:19.030Z,28.24
2023-05-04T14:33:45.532Z,27.98
2023-05-04T14:36:12.197Z,27.65
2023-05-04T14:38:38.699Z,27.68
2023-05-04T14:41:05.893Z,27.56
2023-05-04T14:43:32.564Z,27.48
2023-05-04T14:45:59.532Z,27.58
2023-05-04T14:48:27.549Z,27.58
2023-05-04T14:50:54.911Z,27.44
2023-05-04T14:53:22.124Z,27.48
2023-05-04T14:55:49.324Z,27.48
2023-05-04T14:58:17.199Z,27.38
2023-05-04T15:00:46.970Z,27.20
2023-05-04T15:03:13.648Z,27.01
2023-05-04T15:05:40.265Z,27.03
2023-05-04T15:08:06.812Z,26.64
2023-05-04T15:10:33.982Z,26.36
2023-05-04T15:13:01.570Z,26.29
2023-05-04T15:15:28.131Z,26.18
2023-05-04T15:17:54.820Z,26.05
2023-05-04T15:20:22.304Z,25.78
2023-05-04T15:22:54.009Z,25.65
2023-05-04T15:25:23.716Z,25.59
2023-05-04T15:27:50.450Z,25.59
2023-05-04T15:30:17.312Z,25.49
2023-05-04T15:32:43.815Z,25.29
2023-05-04T15:35:10.402Z,25.04
2023-05-04T15:37:36.900Z,24.96
2023-05-04T15:40:04.542Z,24.82
2023-05-04T15:42:31.391Z,24.67
2023-05-04T15:44:57.947Z,24.56
2023-05-04T15:47:24.565Z,24.43
2023-05-04T15:49:52.411Z,24.30
2023-05-04T15:52:18.968Z,24.10
2023-05-04T15:54:47.246Z,24.05
2023-05-04T15:57:14.978Z,23.99
2023-05-04T15:59:41.597Z,23.98
2023-05-04T16:02:08.157Z,23.90
2023-05-04T16:04:34.611Z,23.80
2023-05-04T16:07:01.206Z,23.74
2023-05-04T16:09:29.997Z,23.75
2023-05-04T16:11:56.663Z,23.70
2023-05-04T16:14:23.410Z,23.70
2023-05-04T16:16:50.007Z,23.66
2023-05-04T16:19:18.015Z,23.70
2023-05-04T16:21:44.597Z,23.68
2023-05-04T16:24:12.933Z,23.63
2023-05-04T16:26:40.357Z,23.68
2023-05-04T16:29:06.869Z,23.74
2023-05-04T16:31:33.477Z,23.75
2023-05-04T16:34:00.131Z,23.83
2023-05-04T16:36:26.676Z,23.82
2023-05-04T16:38:53.136Z,23.72
2023-05-04T16:41:19.873Z,23.51
2023-05-04T16:43:47.318Z,23.42
2023-05-04T16:46:13.952Z,23.43
2023-05-04T16:48:40.533Z,23.26
2023-05-04T16:51:08.256Z,23.21
2023-05-04T16:53:35.570Z,23.17
2023-05-04T16:56:02.206Z,23.12
2023-05-04T16:58:28.924Z,23.11
2023-05-04T17:00:55.696Z,22.99
2023-05-04T17:03:22.761Z,22.92
2023-05-04T17:05:49.411Z,22.81
2023-05-04T17:08:17.364Z,22.69
2023-05-04T17:10:43.844Z,22.61
2023-05-04T17:13:10.341Z,22.55
2023-05-04T17:15:36.826Z,22.55
2023-05-04T17:18:03.380Z,22.49
2023-05-04T17:20:31.792Z,22.39
2023-05-04T17:23:01.074Z,22.38
2023-05-04T17:25:27.664Z,22.32
2023-05-04T17:27:54.651Z,22.24
2023-05-04T17:30:21.156Z,22.17
2023-05-04T17:32:48.757Z,22.09
2023-05-04T17:35:24.008Z,21.94
2023-05-04T17:37:55.133Z,21.88
2023-05-04T17:40:23.610Z,21.69
2023-05-04T17:42:50.082Z,21.73
2023-05-04T17:45:16.606Z,21.68
2023-05-04T17:47:44.934Z,21.56
2023-05-04T17:50:11.684Z,21.49
2023-05-04T17:52:38.200Z,21.41
2023-05-04T17:55:05.215Z,21.36
2023-05-04T17:57:31.697Z,21.25
2023-05-04T17:59:58.211Z,21.19
2023-05-04T18:02:24.726Z,21.12
2023-05-04T18:04:51.408Z,21.01
2023-05-04T18:07:17.915Z,20.95
2023-05-04T18:09:44.534Z,20.90
2023-05-04T18:12:10.983Z,20.81
2023-05-04T18:14:37.411Z,20.80
2023-05-04T18:17:03.927Z,20.77
2023-05-04T18:19:34.222Z,20.72
2023-05-04T18:22:00.946Z,20.60
2023-05-04T18:24:27.395Z,20.54
2023-05-04T18:26:54.053Z,20.52
2023-05-04T18:29:20.508Z,20.49
2023-05-04T18:31:47.140Z,20.45
2023-05-04T18:34:13.717Z,20.39
2023-05-04T18:36:40.984Z,20.34
2023-05-04T18:39:08.268Z,20.27
2023-05-04T18:41:35.090Z,20.15
2023-05-04T18:44:01.584Z,20.16
2023-05-04T18:46:28.212Z,20.10
2023-05-04T18:48:56.076Z,20.05
2023-05-04T18:51:22.506Z,19.97
2023-05-04T18:53:50.082Z,19.85
2023-05-04T18:56:16.643Z,19.78
2023-05-04T18:58:43.094Z,19.72
2023-05-04T19:01:09.663Z,19.65
2023-05-04T19:03:36.706Z,19.58
2023-05-04T19:06:06.414Z,19.50
2023-05-04T19:08:33.600Z,19.41
2023-05-04T19:11:00.174Z,19.30
2023-05-04T19:13:26.751Z,19.21
2023-05-04T19:15:53.290Z,19.11
2023-05-04T19:18:19.996Z,19.00
2023-05-04T19:20:46.638Z,18.84
2023-05-04T19:23:13.125Z,18.79
2023-05-04T19:25:40.058Z,18.64
2023-05-04T19:28:09.774Z,18.54
2023-05-04T19:30:37.109Z,18.42
2023-05-04T19:33:05.443Z,18.33
2023-05-04T19:35:32.232Z,18.23
2023-05-04T19:37:59.273Z,18.14
2023-05-04T19:40:25.763Z,18.03
2023-05-04T19:42:52.222Z,17.92
2023-05-04T19:45:18.750Z,17.78
2023-05-04T19:47:45.505Z,17.67
2023-05-04T19:50:13.937Z,17.56
2023-05-04T19:52:40.751Z,17.38
2023-05-04T19:55:08.909Z,17.28
2023-05-04T19:57:36.175Z,17.21
2023-05-04T20:00:03.418Z,17.11
2023-05-04T20:02:30.216Z,17.04
2023-05-04T20:04:56.900Z,16.98
2023-05-04T20:07:24.471Z,16.92
2023-05-04T20:09:50.989Z,16.81
2023-05-04T20:12:17.551Z,16.76
2023-05-04T20:14:44.024Z,16.68
2023-05-04T20:17:10.514Z,16.57
2023-05-04T20:19:38.752Z,16.48
2023-05-04T20:22:05.289Z,16.40
2023-05-04T20:24:31.726Z,16.30
2023-05-04T20:26:58.189Z,16.17
2023-05-04T20:29:24.646Z,16.10
2023-05-04T20:31:51.332Z,16.06
2023-05-04T20:34:19.004Z,15.98
2023-05-04T20:36:46.958Z,15.98
2023-05-04T20:39:13.795Z,15.89
2023-05-04T20:41:40.997Z,15.81
2023-05-04T20:44:07.529Z,15.73
2023-05-04T20:46:34.275Z,15.66
2023-05-04T20:49:02.808Z,15.58
2023-05-04T20:51:29.548Z,15.49
2023-05-04T20:53:55.999Z,15.45
2023-05-04T20:56:22.534Z,15.42
2023-05-04T20:58:48.984Z,15.38
2023-05-04T21:01:15.592Z,15.32
2023-05-04T21:03:42.191Z,15.26
2023-05-04T21:06:08.732Z,15.16
2023-05-04T21:08:35.149Z,15.11
2023-05-04T21:11:01.752Z,15.05
2023-05-04T21:13:28.361Z,14.91
2023-05-04T21:15:54.860Z,14.82
2023-05-04T21:18:21.337Z,14.77
2023-05-04T21:20:48.055Z,14.76
2023-05-04T21:23:14.575Z,14.74
2023-05-04T21:25:41.061Z,14.68
2023-05-04T21:28:07.561Z,14.63
2023-05-04T21:30:34.006Z,14.56
2023-05-04T21:33:01.008Z,14.50
2023-05-04T21:35:30.885Z,14.44
2023-05-04T21:37:58.941Z,14.38
2023-05-04T21:40:27.336Z,14.36
2023-05-04T21:42:53.896Z,14.34
2023-05-04T21:45:20.490Z,14.32
2023-05-04T21:47:47.034Z,14.28
2023-05-04T21:50:13.575Z,14.26
2023-05-04T21:52:40.010Z,14.22
2023-05-04T21:55:06.969Z,14.19
2023-05-04T21:57:33.506Z,14.19
2023-05-04T22:00:00.026Z,14.12
2023-05-04T22:02:26.559Z,14.09
2023-05-04T22:04:53.030Z,14.01
2023-05-04T22:07:19.516Z,14.04
2023-05-04T22:09:45.973Z,14.06
2023-05-04T22:12:12.929Z,14.08
2023-05-04T22:14:41.608Z,14.07
2023-05-04T22:17:08.962Z,14.09
2023-05-04T22:19:35.452Z,14.07
2023-05-04T22:22:01.959Z,14.07
2023-05-04T22:24:28.473Z,14.03
2023-05-04T22:26:54.944Z,14.06
2023-05-04T22:29:21.436Z,14.01
2023-05-04T22:31:47.924Z,14.04
2023-05-04T22:34:14.351Z,14.00
2023-05-04T22:36:40.883Z,14.01
2023-05-04T22:39:07.717Z,13.96
2023-05-04T22:41:34.149Z,14.01
2023-05-04T22:44:01.131Z,14.01
2023-05-04T22:46:27.579Z,14.03
2023-05-04T22:48:54.058Z,14.03
2023-05-04T22:51:20.734Z,14.00
2023-05-04T22:53:47.245Z,14.00
2023-05-04T22:56:13.704Z,14.01
2023-05-04T22:58:40.181Z,14.02
2023-05-04T23:01:10.489Z,14.00
2023-05-04T23:03:40.534Z,13.98
2023-05-04T23:06:08.647Z,13.98
2023-05-04T23:08:35.094Z,13.99
2023-05-04T23:11:01.529Z,13.98
2023-05-04T23:13:28.452Z,13.91
2023-05-04T23:15:55.080Z,13.96
2023-05-04T23:18:21.566Z,13.93
2023-05-04T23:20:48.044Z,13.95
2023-05-04T23:23:14.535Z,13.94
2023-05-04T23:25:41.286Z,13.92
2023-05-04T23:28:07.721Z,13.92
2023-05-04T23:30:34.194Z,13.91
2023-05-04T23:33:00.858Z,13.88
2023-05-04T23:35:28.128Z,13.81
2023-05-04T23:37:54.655Z,13.82
2023-05-04T23:40:21.589Z,13.81
2023-05-04T23:42:51.026Z,13.76
2023-05-04T23:45:17.594Z,13.76
2023-05-04T23:47:44.140Z,13.74
2023-05-04T23:50:11.570Z,13.69
2023-05-04T23:52:38.129Z,13.68
2023-05-04T23:55:05.147Z,13.68
2023-05-04T23:57:31.600Z,13.65
2023-05-04T23:59:58.057Z,13.67
